sensor_id;sensor_type;location;lat;lon;timestamp;pressure;altitude;pressure_sealevel;temperature;humidity
14253;BME280;7210;51.502;10.722;2022-09-27T00:01:23;97461.28;;;11.61;92.15
14253;BME280;7210;51.502;10.722;2022-09-27T00:03:52;97467.91;;;11.58;92.33
14253;BME280;7210;51.502;10.722;2022-09-27T00:06:25;97461.31;;;11.56;92.67
14253;BME280;7210;51.502;10.722;2022-09-27T00:08:53;97465.03;;;11.55;92.95
14253;BME280;7210;51.502;10.722;2022-09-27T00:11:26;97463.44;;;11.54;93.21
14253;BME280;7210;51.502;10.722;2022-09-27T00:13:56;97454.22;;;11.51;93.44
14253;BME280;7210;51.502;10.722;2022-09-27T00:16:27;97476.41;;;11.55;93.66
14253;BME280;7210;51.502;10.722;2022-09-27T00:18:58;97465.06;;;11.50;93.84
14253;BME280;7210;51.502;10.722;2022-09-27T00:21:27;97458.53;;;11.47;94.03
14253;BME280;7210;51.502;10.722;2022-09-27T00:23:55;97460.09;;;11.48;94.57
14253;BME280;7210;51.502;10.722;2022-09-27T00:26:23;97461.66;;;11.49;94.87
14253;BME280;7210;51.502;10.722;2022-09-27T00:28:51;97452.44;;;11.47;95.37
14253;BME280;7210;51.502;10.722;2022-09-27T00:31:22;97447.72;;;11.44;96.05
14253;BME280;7210;51.502;10.722;2022-09-27T00:33:52;97456.19;;;11.41;96.70
14253;BME280;7210;51.502;10.722;2022-09-27T00:36:21;97446.19;;;11.38;97.08
14253;BME280;7210;51.502;10.722;2022-09-27T00:38:55;97441.19;;;11.36;97.31
14253;BME280;7210;51.502;10.722;2022-09-27T00:41:28;97440.19;;;11.32;97.74
14253;BME280;7210;51.502;10.722;2022-09-27T00:43:59;97429.38;;;11.29;98.22
14253;BME280;7210;51.502;10.722;2022-09-27T00:46:33;97435.22;;;11.26;98.73
14253;BME280;7210;51.502;10.722;2022-09-27T00:49:09;97426.81;;;11.24;99.17
14253;BME280;7210;51.502;10.722;2022-09-27T00:51:47;97421.50;;;11.24;99.58
14253;BME280;7210;51.502;10.722;2022-09-27T00:54:19;97425.22;;;11.23;99.72
14253;BME280;7210;51.502;10.722;2022-09-27T00:56:49;97421.50;;;11.24;99.99
14253;BME280;7210;51.502;10.722;2022-09-27T00:59:22;97414.16;;;11.21;100.00
14253;BME280;7210;51.502;10.722;2022-09-27T01:01:53;97413.31;;;11.25;100.00
14253;BME280;7210;51.502;10.722;2022-09-27T01:04:24;97415.63;;;11.27;99.99
14253;BME280;7210;51.502;10.722;2022-09-27T01:06:53;97412.72;;;11.28;100.00
14253;BME280;7210;51.502;10.722;2022-09-27T01:09:21;97414.28;;;11.29;100.00
14253;BME280;7210;51.502;10.722;2022-09-27T01:11:56;97415.88;;;11.30;100.00
14253;BME280;7210;51.502;10.722;2022-09-27T01:14:47;97412.38;;;11.35;99.92
14253;BME280;7210;51.502;10.722;2022-09-27T01:17:41;97409.75;;;11.35;99.93
14253;BME280;7210;51.502;10.722;2022-09-27T01:20:49;97409.75;;;11.35;100.00
14253;BME280;7210;51.502;10.722;2022-09-27T01:23:53;97406.31;;;11.34;100.00
14253;BME280;7210;51.502;10.722;2022-09-27T01:26:44;97395.50;;;11.31;100.00
14253;BME280;7210;51.502;10.722;2022-09-27T01:29:32;97404.50;;;11.30;100.00
14253;BME280;7210;51.502;10.722;2022-09-27T01:32:11;97402.16;;;11.28;100.00
14253;BME280;7210;51.502;10.722;2022-09-27T01:34:53;97402.94;;;11.29;100.00
14253;BME280;7210;51.502;10.722;2022-09-27T01:37:37;97381.13;;;11.18;100.00
14253;BME280;7210;51.502;10.722;2022-09-27T01:40:22;97386.00;;;11.30;100.00
14253;BME280;7210;51.502;10.722;2022-09-27T01:43:36;97395.50;;;11.31;100.00
14253;BME280;7210;51.502;10.722;2022-09-27T01:46:20;97386.06;;;11.25;100.00
14253;BME280;7210;51.502;10.722;2022-09-27T01:49:15;97389.06;;;11.18;100.00
14253;BME280;7210;51.502;10.722;2022-09-27T01:51:48;97387.25;;;11.14;100.00
14253;BME280;7210;51.502;10.722;2022-09-27T01:54:23;97382.84;;;11.10;100.00
14253;BME280;7210;51.502;10.722;2022-09-27T01:57:22;97370.53;;;11.00;100.00
14253;BME280;7210;51.502;10.722;2022-09-27T01:59:55;97378.91;;;11.07;100.00
14253;BME280;7210;51.502;10.722;2022-09-27T02:02:48;97374.69;;;11.06;100.00
14253;BME280;7210;51.502;10.722;2022-09-27T02:05:42;97375.00;;;11.00;100.00
14253;BME280;7210;51.502;10.722;2022-09-27T02:08:44;97368.47;;;10.97;100.00
14253;BME280;7210;51.502;10.722;2022-09-27T02:14:44;97359.00;;;10.91;100.00
14253;BME280;7210;51.502;10.722;2022-09-27T02:17:26;97358.22;;;10.91;100.00
14253;BME280;7210;51.502;10.722;2022-09-27T02:20:08;97362.72;;;10.90;100.00
14253;BME280;7210;51.502;10.722;2022-09-27T02:22:54;97354.78;;;10.90;100.00
14253;BME280;7210;51.502;10.722;2022-09-27T02:25:27;97355.56;;;10.91;100.00
14253;BME280;7210;51.502;10.722;2022-09-27T02:28:07;97352.38;;;10.94;100.00
14253;BME280;7210;51.502;10.722;2022-09-27T02:30:44;97351.00;;;10.96;100.00
14253;BME280;7210;51.502;10.722;2022-09-27T02:33:24;97340.41;;;10.96;100.00
14253;BME280;7210;51.502;10.722;2022-09-27T02:35:53;97324.91;;;10.90;100.00
14253;BME280;7210;51.502;10.722;2022-09-27T02:38:23;97339.88;;;10.99;100.00
14253;BME280;7210;51.502;10.722;2022-09-27T02:40:51;97344.34;;;10.99;100.00
14253;BME280;7210;51.502;10.722;2022-09-27T02:43:22;97345.16;;;10.99;100.00
14253;BME280;7210;51.502;10.722;2022-09-27T02:46:09;97344.34;;;10.99;100.00
14253;BME280;7210;51.502;10.722;2022-09-27T02:48:51;97320.00;;;10.83;100.00
14253;BME280;7210;51.502;10.722;2022-09-27T02:51:35;97342.56;;;10.94;100.00
14253;BME280;7210;51.502;10.722;2022-09-27T02:54:17;97338.34;;;10.93;100.00
14253;BME280;7210;51.502;10.722;2022-09-27T02:57:12;97332.84;;;10.90;100.00
14253;BME280;7210;51.502;10.722;2022-09-27T03:00:02;97329.84;;;10.96;100.00
14253;BME280;7210;51.502;10.722;2022-09-27T03:03:02;97323.50;;;10.97;100.00
14253;BME280;7210;51.502;10.722;2022-09-27T03:05:44;97333.00;;;10.98;100.00
14253;BME280;7210;51.502;10.722;2022-09-27T03:08:13;97330.84;;;11.00;100.00
14253;BME280;7210;51.502;10.722;2022-09-27T03:10:42;97336.38;;;11.04;100.00
14253;BME280;7210;51.502;10.722;2022-09-27T03:13:11;97328.16;;;11.05;100.00
14253;BME280;7210;51.502;10.722;2022-09-27T03:15:39;97333.66;;;11.09;100.00
14253;BME280;7210;51.502;10.722;2022-09-27T03:18:06;97323.09;;;11.09;100.00
14253;BME280;7210;51.502;10.722;2022-09-27T03:20:52;97330.44;;;11.12;100.00
14253;BME280;7210;51.502;10.722;2022-09-27T03:23:21;97331.72;;;11.14;100.00
14253;BME280;7210;51.502;10.722;2022-09-27T03:25:50;97322.50;;;11.12;100.00
14253;BME280;7210;51.502;10.722;2022-09-27T03:28:17;97333.31;;;11.15;100.00
14253;BME280;7210;51.502;10.722;2022-09-27T03:30:46;97322.72;;;11.15;100.00
14253;BME280;7210;51.502;10.722;2022-09-27T03:33:42;97319.00;;;11.16;100.00
14253;BME280;7210;51.502;10.722;2022-09-27T03:36:10;97328.00;;;11.15;100.00
14253;BME280;7210;51.502;10.722;2022-09-27T03:38:38;97320.09;;;11.15;100.00
14253;BME280;7210;51.502;10.722;2022-09-27T03:41:09;97317.94;;;11.17;100.00
14253;BME280;7210;51.502;10.722;2022-09-27T03:43:36;97311.88;;;11.17;100.00
14253;BME280;7210;51.502;10.722;2022-09-27T03:46:04;97313.94;;;11.19;100.00
14253;BME280;7210;51.502;10.722;2022-09-27T03:48:31;97318.63;;;11.22;100.00
14253;BME280;7210;51.502;10.722;2022-09-27T03:50:58;97309.06;;;11.26;100.00
14253;BME280;7210;51.502;10.722;2022-09-27T03:53:26;97311.72;;;11.26;100.00
14253;BME280;7210;51.502;10.722;2022-09-27T03:55:53;97310.06;;;11.30;100.00
14253;BME280;7210;51.502;10.722;2022-09-27T03:58:22;97310.66;;;11.27;100.00
14253;BME280;7210;51.502;10.722;2022-09-27T04:00:49;97311.44;;;11.28;100.00
14253;BME280;7210;51.502;10.722;2022-09-27T04:03:16;97307.72;;;11.29;100.00
14253;BME280;7210;51.502;10.722;2022-09-27T04:06:03;97311.66;;;11.31;100.00
14253;BME280;7210;51.502;10.722;2022-09-27T04:08:37;97310.06;;;11.30;100.00
14253;BME280;7210;51.502;10.722;2022-09-27T04:11:05;97300.28;;;11.31;100.00
14253;BME280;7210;51.502;10.722;2022-09-27T04:13:35;97306.16;;;11.28;100.00
14253;BME280;7210;51.502;10.722;2022-09-27T04:16:02;97304.88;;;11.25;100.00
14253;BME280;7210;51.502;10.722;2022-09-27T04:18:48;97294.56;;;11.24;100.00
14253;BME280;7210;51.502;10.722;2022-09-27T04:21:15;97287.28;;;11.16;100.00
14253;BME280;7210;51.502;10.722;2022-09-27T04:23:49;97303.06;;;11.21;100.00
14253;BME280;7210;51.502;10.722;2022-09-27T04:26:18;97301.00;;;11.18;100.00
14253;BME280;7210;51.502;10.722;2022-09-27T04:29:02;97296.78;;;11.17;100.00
14253;BME280;7210;51.502;10.722;2022-09-27T04:31:31;97297.06;;;11.15;100.00
14253;BME280;7210;51.502;10.722;2022-09-27T04:34:21;97294.13;;;11.17;100.00
14253;BME280;7210;51.502;10.722;2022-09-27T04:37:10;97294.72;;;11.14;100.00
14253;BME280;7210;51.502;10.722;2022-09-27T04:39:38;97294.72;;;11.14;100.00
14253;BME280;7210;51.502;10.722;2022-09-27T04:42:06;97297.06;;;11.15;100.00
14253;BME280;7210;51.502;10.722;2022-09-27T04:44:35;97293.38;;;11.17;100.00
14253;BME280;7210;51.502;10.722;2022-09-27T04:47:02;97294.94;;;11.18;100.00
14253;BME280;7210;51.502;10.722;2022-09-27T04:49:29;97296.28;;;11.15;100.00
14253;BME280;7210;51.502;10.722;2022-09-27T04:51:57;97295.69;;;11.18;100.00
14253;BME280;7210;51.502;10.722;2022-09-27T04:54:24;97294.13;;;11.17;100.00
14253;BME280;7210;51.502;10.722;2022-09-27T04:57:08;97298.06;;;11.19;100.00
14253;BME280;7210;51.502;10.722;2022-09-27T04:59:39;97299.41;;;11.17;100.00
14253;BME280;7210;51.502;10.722;2022-09-27T05:02:06;97297.06;;;11.15;100.00
14253;BME280;7210;51.502;10.722;2022-09-27T05:04:53;97301.00;;;11.18;100.00
14253;BME280;7210;51.502;10.722;2022-09-27T05:07:23;97298.88;;;11.20;100.00
14253;BME280;7210;51.502;10.722;2022-09-27T05:10:03;97294.94;;;11.18;100.00
14253;BME280;7210;51.502;10.722;2022-09-27T05:12:31;97300.72;;;11.19;100.00
14253;BME280;7210;51.502;10.722;2022-09-27T05:15:03;97298.28;;;11.23;100.00
14253;BME280;7210;51.502;10.722;2022-09-27T05:17:50;97301.19;;;11.21;100.00
14253;BME280;7210;51.502;10.722;2022-09-27T05:20:37;97297.47;;;11.22;100.00
14253;BME280;7210;51.502;10.722;2022-09-27T05:23:12;97306.16;;;11.28;100.00
14253;BME280;7210;51.502;10.722;2022-09-27T05:25:40;97302.44;;;11.29;100.00
14253;BME280;7210;51.502;10.722;2022-09-27T05:28:07;97305.94;;;11.24;100.00
14253;BME280;7210;51.502;10.722;2022-09-27T05:30:36;97306.50;;;11.21;100.00
14253;BME280;7210;51.502;10.722;2022-09-27T05:33:09;97306.50;;;11.21;100.00
14253;BME280;7210;51.502;10.722;2022-09-27T05:35:57;97305.19;;;11.19;100.00
14253;BME280;7210;51.502;10.722;2022-09-27T05:38:28;97304.72;;;11.17;100.00
14253;BME280;7210;51.502;10.722;2022-09-27T05:40:58;97312.16;;;11.15;100.00
14253;BME280;7210;51.502;10.722;2022-09-27T05:43:25;97302.66;;;11.14;100.00
14253;BME280;7210;51.502;10.722;2022-09-27T05:45:54;97307.84;;;11.19;100.00
14253;BME280;7210;51.502;10.722;2022-09-27T05:48:22;97304.44;;;11.18;100.00
14253;BME280;7210;51.502;10.722;2022-09-27T05:51:00;97311.72;;;11.26;100.00
14253;BME280;7210;51.502;10.722;2022-09-27T05:53:27;97308.69;;;11.33;100.00
14253;BME280;7210;51.502;10.722;2022-09-27T05:55:55;97311.34;;;11.33;100.00
14253;BME280;7210;51.502;10.722;2022-09-27T05:58:31;97314.00;;;11.33;100.00
14253;BME280;7210;51.502;10.722;2022-09-27T06:01:13;97306.66;;;11.30;100.00
14253;BME280;7210;51.502;10.722;2022-09-27T06:04:10;97315.34;;;11.30;100.00
14253;BME280;7210;51.502;10.722;2022-09-27T06:07:12;97322.03;;;11.28;100.00
14253;BME280;7210;51.502;10.722;2022-09-27T06:09:39;97318.31;;;11.29;100.00
14253;BME280;7210;51.502;10.722;2022-09-27T06:12:07;97315.94;;;11.27;100.00
14253;BME280;7210;51.502;10.722;2022-09-27T06:14:37;97322.56;;;11.25;100.00
14253;BME280;7210;51.502;10.722;2022-09-27T06:17:09;97327.09;;;11.24;100.00
14253;BME280;7210;51.502;10.722;2022-09-27T06:19:40;97327.31;;;11.28;100.00
14253;BME280;7210;51.502;10.722;2022-09-27T06:22:07;97334.72;;;11.26;100.00
14253;BME280;7210;51.502;10.722;2022-09-27T06:24:44;97331.00;;;11.27;100.00
14253;BME280;7210;51.502;10.722;2022-09-27T06:27:18;97336.81;;;11.29;100.00
14253;BME280;7210;51.502;10.722;2022-09-27T06:29:53;97339.47;;;11.29;99.51
14253;BME280;7210;51.502;10.722;2022-09-27T06:32:42;97356.97;;;11.25;98.93
14253;BME280;7210;51.502;10.722;2022-09-27T06:35:20;97352.31;;;11.17;98.56
14253;BME280;7210;51.502;10.722;2022-09-27T06:37:50;97359.09;;;11.23;98.54
14253;BME280;7210;51.502;10.722;2022-09-27T06:40:18;97365.47;;;11.22;98.52
14253;BME280;7210;51.502;10.722;2022-09-27T06:43:05;97379.25;;;11.19;98.67
14253;BME280;7210;51.502;10.722;2022-09-27T06:45:59;97379.78;;;11.21;99.07
14253;BME280;7210;51.502;10.722;2022-09-27T06:48:55;97390.63;;;11.19;99.55
14253;BME280;7210;51.502;10.722;2022-09-27T06:51:22;97391.13;;;11.21;99.93
14253;BME280;7210;51.502;10.722;2022-09-27T06:53:50;97390.84;;;11.23;99.87
14253;BME280;7210;51.502;10.722;2022-09-27T06:56:20;97402.50;;;11.22;100.00
14253;BME280;7210;51.502;10.722;2022-09-27T06:58:50;97406.09;;;11.31;100.00
14253;BME280;7210;51.502;10.722;2022-09-27T07:01:41;97409.81;;;11.30;99.49
14253;BME280;7210;51.502;10.722;2022-09-27T07:04:28;97402.00;;;11.20;98.93
14253;BME280;7210;51.502;10.722;2022-09-27T07:07:01;97407.78;;;11.22;99.38
14253;BME280;7210;51.502;10.722;2022-09-27T07:09:32;97413.63;;;11.19;99.24
14253;BME280;7210;51.502;10.722;2022-09-27T07:12:00;97422.09;;;11.21;99.10
14253;BME280;7210;51.502;10.722;2022-09-27T07:14:29;97424.72;;;11.21;98.76
14253;BME280;7210;51.502;10.722;2022-09-27T07:16:59;97429.81;;;11.18;98.57
14253;BME280;7210;51.502;10.722;2022-09-27T07:19:33;97433.16;;;11.23;98.52
14253;BME280;7210;51.502;10.722;2022-09-27T07:22:01;97441.59;;;11.25;98.02
14253;BME280;7210;51.502;10.722;2022-09-27T07:24:29;97444.53;;;11.23;97.66
14253;BME280;7210;51.502;10.722;2022-09-27T07:26:58;97447.09;;;11.28;97.31
14253;BME280;7210;51.502;10.722;2022-09-27T07:29:26;97452.19;;;11.25;96.70
14253;BME280;7210;51.502;10.722;2022-09-27T07:31:56;97446.34;;;11.28;96.35
14253;BME280;7210;51.502;10.722;2022-09-27T07:34:24;97455.13;;;11.23;95.68
14253;BME280;7210;51.502;10.722;2022-09-27T07:36:57;97458.09;;;11.17;95.59
14253;BME280;7210;51.502;10.722;2022-09-27T07:39:25;97460.25;;;11.15;95.54
14253;BME280;7210;51.502;10.722;2022-09-27T07:41:53;97458.66;;;11.14;95.71
14253;BME280;7210;51.502;10.722;2022-09-27T07:44:21;97462.94;;;11.10;96.23
14253;BME280;7210;51.502;10.722;2022-09-27T07:47:08;97471.47;;;11.02;97.08
14253;BME280;7210;51.502;10.722;2022-09-27T07:49:54;97469.94;;;10.96;97.88
14253;BME280;7210;51.502;10.722;2022-09-27T07:52:44;97471.09;;;10.90;98.95
14253;BME280;7210;51.502;10.722;2022-09-27T07:55:28;97477.47;;;10.89;100.00
14253;BME280;7210;51.502;10.722;2022-09-27T07:58:06;97478.06;;;10.81;100.00
14253;BME280;7210;51.502;10.722;2022-09-27T08:00:35;97472.38;;;10.69;100.00
14253;BME280;7210;51.502;10.722;2022-09-27T08:03:07;97486.06;;;10.71;100.00
14253;BME280;7210;51.502;10.722;2022-09-27T08:05:36;97484.03;;;10.63;100.00
14253;BME280;7210;51.502;10.722;2022-09-27T08:08:05;97487.53;;;10.59;100.00
14253;BME280;7210;51.502;10.722;2022-09-27T08:10:33;97494.59;;;10.63;100.00
14253;BME280;7210;51.502;10.722;2022-09-27T08:13:01;97493.59;;;10.59;100.00
14253;BME280;7210;51.502;10.722;2022-09-27T08:15:31;97500.97;;;10.62;100.00
14253;BME280;7210;51.502;10.722;2022-09-27T08:18:00;97496.19;;;10.64;100.00
14253;BME280;7210;51.502;10.722;2022-09-27T08:20:50;97497.44;;;10.72;100.00
14253;BME280;7210;51.502;10.722;2022-09-27T08:23:37;97509.56;;;10.78;100.00
14253;BME280;7210;51.502;10.722;2022-09-27T08:26:16;97509.22;;;10.84;100.00
14253;BME280;7210;51.502;10.722;2022-09-27T08:29:09;97516.56;;;10.87;100.00
14253;BME280;7210;51.502;10.722;2022-09-27T08:31:42;97518.06;;;10.98;100.00
14253;BME280;7210;51.502;10.722;2022-09-27T08:34:09;97521.22;;;11.00;100.00
14253;BME280;7210;51.502;10.722;2022-09-27T08:36:36;97524.13;;;10.99;100.00
14253;BME280;7210;51.502;10.722;2022-09-27T08:39:10;97524.31;;;11.07;100.00
14253;BME280;7210;51.502;10.722;2022-09-27T08:41:59;97529.56;;;11.12;100.00
14253;BME280;7210;51.502;10.722;2022-09-27T08:44:46;97531.59;;;11.20;100.00
14253;BME280;7210;51.502;10.722;2022-09-27T08:47:26;97539.06;;;11.36;100.00
14253;BME280;7210;51.502;10.722;2022-09-27T08:50:03;97542.97;;;11.44;100.00
14253;BME280;7210;51.502;10.722;2022-09-27T08:52:39;97540.69;;;11.56;100.00
14253;BME280;7210;51.502;10.722;2022-09-27T08:55:20;97543.19;;;11.71;100.00
14253;BME280;7210;51.502;10.722;2022-09-27T08:57:53;97548.06;;;11.82;100.00
14253;BME280;7210;51.502;10.722;2022-09-27T09:00:22;97550.34;;;11.89;100.00
14253;BME280;7210;51.502;10.722;2022-09-27T09:02:49;97548.78;;;11.88;100.00
14253;BME280;7210;51.502;10.722;2022-09-27T09:05:27;97556.94;;;11.91;99.48
14253;BME280;7210;51.502;10.722;2022-09-27T09:08:21;97558.38;;;11.84;98.93
14253;BME280;7210;51.502;10.722;2022-09-27T09:11:07;97550.41;;;11.65;99.47
14253;BME280;7210;51.502;10.722;2022-09-27T09:14:23;97559.50;;;11.78;100.00
14253;BME280;7210;51.502;10.722;2022-09-27T09:17:09;97574.41;;;11.74;100.00
14253;BME280;7210;51.502;10.722;2022-09-27T09:20:18;97563.56;;;11.47;100.00
14253;BME280;7210;51.502;10.722;2022-09-27T09:23:22;97580.78;;;11.44;100.00
14253;BME280;7210;51.502;10.722;2022-09-27T09:26:05;97575.16;;;11.51;100.00
14253;BME280;7210;51.502;10.722;2022-09-27T09:28:55;97561.97;;;11.46;100.00
14253;BME280;7210;51.502;10.722;2022-09-27T09:31:39;97573.13;;;11.43;100.00
14253;BME280;7210;51.502;10.722;2022-09-27T09:34:14;97563.09;;;11.40;100.00
14253;BME280;7210;51.502;10.722;2022-09-27T09:36:51;97560.47;;;11.40;100.00
14253;BME280;7210;51.502;10.722;2022-09-27T09:39:44;97566.28;;;11.65;99.83
14253;BME280;7210;51.502;10.722;2022-09-27T09:42:24;97565.25;;;11.85;98.75
14253;BME280;7210;51.502;10.722;2022-09-27T09:45:00;97576.13;;;12.02;97.25
14253;BME280;7210;51.502;10.722;2022-09-27T09:47:35;97558.75;;;12.14;95.59
14253;BME280;7210;51.502;10.722;2022-09-27T09:50:18;97565.97;;;12.46;94.93
14253;BME280;7210;51.502;10.722;2022-09-27T09:52:53;97572.69;;;12.57;93.91
14253;BME280;7210;51.502;10.722;2022-09-27T09:55:32;97569.97;;;12.62;92.55
14253;BME280;7210;51.502;10.722;2022-09-27T09:58:20;97571.97;;;12.70;91.34
14253;BME280;7210;51.502;10.722;2022-09-27T10:01:07;97564.69;;;12.62;89.53
14253;BME280;7210;51.502;10.722;2022-09-27T10:03:38;97566.41;;;12.53;88.77
14253;BME280;7210;51.502;10.722;2022-09-27T10:06:16;97584.53;;;12.46;87.93
14253;BME280;7210;51.502;10.722;2022-09-27T10:08:45;97566.53;;;12.43;86.80
14253;BME280;7210;51.502;10.722;2022-09-27T10:11:36;97567.59;;;12.60;86.70
14253;BME280;7210;51.502;10.722;2022-09-27T10:14:26;97567.72;;;12.87;86.77
14253;BME280;7210;51.502;10.722;2022-09-27T10:17:08;97562.53;;;12.96;85.27
14253;BME280;7210;51.502;10.722;2022-09-27T10:19:37;97566.28;;;12.95;84.48
14253;BME280;7210;51.502;10.722;2022-09-27T10:22:17;97568.38;;;12.98;83.59
14253;BME280;7210;51.502;10.722;2022-09-27T10:24:55;97568.41;;;13.38;84.23
14253;BME280;7210;51.502;10.722;2022-09-27T10:27:40;97569.97;;;13.80;83.38
14253;BME280;7210;51.502;10.722;2022-09-27T10:30:25;97566.03;;;14.04;81.87
14253;BME280;7210;51.502;10.722;2022-09-27T10:32:57;97564.59;;;14.34;79.98
14253;BME280;7210;51.502;10.722;2022-09-27T10:35:43;97560.84;;;14.35;78.74
14253;BME280;7210;51.502;10.722;2022-09-27T10:38:24;97573.19;;;14.31;77.07
14253;BME280;7210;51.502;10.722;2022-09-27T10:41:25;97569.56;;;14.00;76.48
14253;BME280;7210;51.502;10.722;2022-09-27T10:44:23;97578.25;;;13.92;76.57
14253;BME280;7210;51.502;10.722;2022-09-27T10:47:08;97571.72;;;13.98;76.43
14253;BME280;7210;51.502;10.722;2022-09-27T10:49:49;97576.44;;;14.14;77.07
14253;BME280;7210;51.502;10.722;2022-09-27T10:52:33;97571.72;;;14.25;76.23
14253;BME280;7210;51.502;10.722;2022-09-27T10:55:12;97575.91;;;14.39;76.48
14253;BME280;7210;51.502;10.722;2022-09-27T10:57:50;97569.66;;;14.57;75.13
14253;BME280;7210;51.502;10.722;2022-09-27T11:00:22;97578.50;;;14.53;74.59
14253;BME280;7210;51.502;10.722;2022-09-27T11:02:55;97577.69;;;14.30;75.14
14253;BME280;7210;51.502;10.722;2022-09-27T11:05:34;97582.53;;;14.15;75.88
14253;BME280;7210;51.502;10.722;2022-09-27T11:08:22;97584.69;;;14.13;76.28
14253;BME280;7210;51.502;10.722;2022-09-27T11:11:17;97577.50;;;14.27;75.52
14253;BME280;7210;51.502;10.722;2022-09-27T11:14:01;97574.63;;;14.37;74.55
14253;BME280;7210;51.502;10.722;2022-09-27T11:16:59;97576.03;;;14.21;74.16
14253;BME280;7210;51.502;10.722;2022-09-27T11:19:51;97587.06;;;14.14;74.68
14253;BME280;7210;51.502;10.722;2022-09-27T11:22:44;97580.78;;;14.24;75.21
14253;BME280;7210;51.502;10.722;2022-09-27T11:25:27;97576.13;;;14.16;73.75
14253;BME280;7210;51.502;10.722;2022-09-27T11:28:18;97584.91;;;14.30;73.86
14253;BME280;7210;51.502;10.722;2022-09-27T11:31:03;97587.19;;;14.45;72.61
14253;BME280;7210;51.502;10.722;2022-09-27T11:34:00;97606.94;;;14.66;72.25
14253;BME280;7210;51.502;10.722;2022-09-27T11:37:01;97589.75;;;14.50;71.34
14253;BME280;7210;51.502;10.722;2022-09-27T11:39:52;97589.50;;;14.38;70.28
14253;BME280;7210;51.502;10.722;2022-09-27T11:43:04;97588.63;;;14.29;70.28
14253;BME280;7210;51.502;10.722;2022-09-27T11:45:47;97593.75;;;14.39;70.03
14253;BME280;7210;51.502;10.722;2022-09-27T11:48:42;97578.00;;;14.29;69.65
14253;BME280;7210;51.502;10.722;2022-09-27T11:51:26;97583.94;;;13.99;69.77
14253;BME280;7210;51.502;10.722;2022-09-27T11:54:14;97590.63;;;13.69;71.22
14253;BME280;7210;51.502;10.722;2022-09-27T11:56:56;97606.34;;;13.25;72.58
14253;BME280;7210;51.502;10.722;2022-09-27T11:59:53;97586.66;;;12.62;76.45
14253;BME280;7210;51.502;10.722;2022-09-27T12:02:44;97615.19;;;12.52;78.43
14253;BME280;7210;51.502;10.722;2022-09-27T12:05:27;97614.34;;;12.56;80.25
14253;BME280;7210;51.502;10.722;2022-09-27T12:08:22;97625.59;;;12.67;81.63
14253;BME280;7210;51.502;10.722;2022-09-27T12:11:02;97622.88;;;12.85;80.90
14253;BME280;7210;51.502;10.722;2022-09-27T12:13:38;97624.50;;;12.86;80.65
14253;BME280;7210;51.502;10.722;2022-09-27T12:16:11;97628.72;;;12.87;78.90
14253;BME280;7210;51.502;10.722;2022-09-27T12:18:42;97635.94;;;12.82;79.07
14253;BME280;7210;51.502;10.722;2022-09-27T12:21:32;97636.19;;;12.67;78.49
14253;BME280;7210;51.502;10.722;2022-09-27T12:24:03;97637.34;;;12.61;77.75
14253;BME280;7210;51.502;10.722;2022-09-27T12:26:41;97637.38;;;12.56;77.22
14253;BME280;7210;51.502;10.722;2022-09-27T12:29:16;97632.81;;;12.61;74.75
14253;BME280;7210;51.502;10.722;2022-09-27T12:31:55;97631.50;;;12.59;71.93
14253;BME280;7210;51.502;10.722;2022-09-27T12:34:34;97634.16;;;12.59;71.51
14253;BME280;7210;51.502;10.722;2022-09-27T12:37:13;97636.69;;;12.69;73.07
14253;BME280;7210;51.502;10.722;2022-09-27T12:39:50;97636.09;;;12.72;79.08
14253;BME280;7210;51.502;10.722;2022-09-27T12:42:33;97633.63;;;12.94;79.21
14253;BME280;7210;51.502;10.722;2022-09-27T12:45:11;97622.97;;;13.31;77.82
14253;BME280;7210;51.502;10.722;2022-09-27T12:47:58;97624.53;;;13.32;76.05
14253;BME280;7210;51.502;10.722;2022-09-27T12:50:35;97618.22;;;13.28;75.90
14253;BME280;7210;51.502;10.722;2022-09-27T12:53:13;97624.63;;;13.27;75.99
14253;BME280;7210;51.502;10.722;2022-09-27T12:59:34;97624.78;;;13.17;77.29
14253;BME280;7210;51.502;10.722;2022-09-27T13:02:56;97620.66;;;13.24;77.04
14253;BME280;7210;51.502;10.722;2022-09-27T13:05:52;97631.41;;;13.19;76.19
14253;BME280;7210;51.502;10.722;2022-09-27T13:08:43;97619.97;;;13.19;74.62
14253;BME280;7210;51.502;10.722;2022-09-27T13:11:22;97607.31;;;13.29;74.70
14253;BME280;7210;51.502;10.722;2022-09-27T13:13:55;97622.84;;;13.36;73.95
14253;BME280;7210;51.502;10.722;2022-09-27T13:16:26;97622.91;;;13.63;74.77
14253;BME280;7210;51.502;10.722;2022-09-27T13:18:56;97621.13;;;13.85;74.24
14253;BME280;7210;51.502;10.722;2022-09-27T13:22:00;97609.91;;;14.02;73.62
14253;BME280;7210;51.502;10.722;2022-09-27T13:24:53;97614.22;;;13.98;71.70
14253;BME280;7210;51.502;10.722;2022-09-27T13:27:50;97613.25;;;13.94;70.61
14253;BME280;7210;51.502;10.722;2022-09-27T13:30:45;97610.13;;;13.92;68.90
14253;BME280;7210;51.502;10.722;2022-09-27T13:33:42;97606.97;;;13.76;68.90
14253;BME280;7210;51.502;10.722;2022-09-27T13:36:25;97610.72;;;13.62;68.27
14253;BME280;7210;51.502;10.722;2022-09-27T13:39:17;97611.28;;;13.59;68.09
14253;BME280;7210;51.502;10.722;2022-09-27T13:42:25;97613.78;;;13.69;68.07
14253;BME280;7210;51.502;10.722;2022-09-27T13:45:19;97621.53;;;13.79;68.10
14253;BME280;7210;51.502;10.722;2022-09-27T13:47:52;97619.84;;;13.69;67.78
14253;BME280;7210;51.502;10.722;2022-09-27T13:50:37;97615.53;;;13.73;66.55
14253;BME280;7210;51.502;10.722;2022-09-27T13:53:22;97619.56;;;13.71;66.54
14253;BME280;7210;51.502;10.722;2022-09-27T13:55:52;97622.31;;;13.66;66.29
14253;BME280;7210;51.502;10.722;2022-09-27T13:58:45;97624.28;;;13.47;66.39
14253;BME280;7210;51.502;10.722;2022-09-27T14:01:48;97631.06;;;13.21;66.88
14253;BME280;7210;51.502;10.722;2022-09-27T14:04:26;97644.41;;;13.02;67.42